createdAt,value
2022-12-08T00:01:39.877Z,100230.97
2022-12-08T00:07:37.005Z,100288.50
2022-12-08T00:10:47.890Z,100297.63
2022-12-08T00:17:03.501Z,100297.75
2022-12-08T00:20:22.115Z,100284.81
2022-12-08T00:23:53.081Z,100275.72
2022-12-08T00:26:37.411Z,100285.25
2022-12-08T00:32:14.169Z,100279.56
2022-12-08T00:35:02.269Z,100280.06
2022-12-08T00:38:01.446Z,100279.56
2022-12-08T00:40:54.338Z,100275.75
2022-12-08T00:43:40.600Z,100276.06
2022-12-08T00:46:21.213Z,100286.78
2022-12-08T00:49:12.150Z,100285.28
2022-12-08T00:52:00.513Z,100291.31
2022-12-08T00:55:12.086Z,100291.00
2022-12-08T00:58:21.345Z,100284.97
2022-12-08T01:01:26.968Z,100297.03
2022-12-08T01:04:28.781Z,100252.41
2022-12-08T01:07:21.505Z,100286.53
2022-12-08T01:10:08.632Z,100286.44
2022-12-08T01:13:15.577Z,100278.91
2022-12-08T01:15:52.073Z,100279.75
2022-12-08T01:18:38.010Z,100283.66
2022-12-08T01:21:27.589Z,100273.88
2022-12-08T01:24:10.011Z,100273.50
2022-12-08T01:27:07.818Z,100264.19
2022-12-08T01:29:52.423Z,100251.59
2022-12-08T01:32:46.838Z,100248.22
2022-12-08T01:35:39.419Z,100245.97
2022-12-08T01:38:18.409Z,100250.69
2022-12-08T01:41:06.590Z,100249.66
2022-12-08T01:44:34.602Z,100252.59
2022-12-08T01:47:30.923Z,100253.53
2022-12-08T01:50:22.328Z,100234.28
2022-12-08T01:53:08.817Z,100252.00
2022-12-08T01:55:49.001Z,100249.88
2022-12-08T01:58:35.409Z,100208.19
2022-12-08T02:01:24.255Z,100249.34
2022-12-08T02:07:08.494Z,100252.66
2022-12-08T02:09:59.794Z,100249.78
2022-12-08T02:12:50.193Z,100252.22
2022-12-08T02:15:35.918Z,100250.72
2022-12-08T02:19:07.983Z,100243.81
2022-12-08T02:21:59.755Z,100240.84
2022-12-08T02:24:54.112Z,100243.53
2022-12-08T02:28:20.975Z,100247.00
2022-12-08T02:31:25.166Z,100228.97
2022-12-08T02:34:29.111Z,100234.28
2022-12-08T02:37:53.497Z,100226.78
2022-12-08T02:40:44.016Z,100233.31
2022-12-08T02:43:46.717Z,100232.06
2022-12-08T02:46:34.763Z,100228.41
2022-12-08T02:49:21.423Z,100223.31
2022-12-08T02:52:21.829Z,100227.44
2022-12-08T02:55:08.770Z,100228.53
2022-12-08T02:58:32.658Z,100232.81
2022-12-08T03:01:40.603Z,100233.81
2022-12-08T03:04:33.756Z,100231.06
2022-12-08T03:07:31.084Z,100228.59
2022-12-08T03:10:31.254Z,100228.50
2022-12-08T03:13:35.346Z,100233.03
2022-12-08T03:16:12.995Z,100108.31
2022-12-08T03:22:09.751Z,100247.63
2022-12-08T03:25:12.439Z,100235.28
2022-12-08T03:28:06.946Z,100237.28
2022-12-08T03:31:03.124Z,100244.75
2022-12-08T03:33:59.917Z,100242.19
2022-12-08T03:36:56.550Z,100247.88
2022-12-08T03:39:46.714Z,100248.09
2022-12-08T03:42:40.519Z,100249.06
2022-12-08T03:45:27.924Z,100244.25
2022-12-08T03:51:00.466Z,100185.63
2022-12-08T03:53:56.493Z,100233.06
2022-12-08T03:56:40.786Z,100239.25
2022-12-08T03:59:25.879Z,100183.88
2022-12-08T04:02:15.238Z,100241.78
2022-12-08T04:05:04.936Z,100256.91
2022-12-08T04:08:01.580Z,100243.66
2022-12-08T04:10:59.333Z,100256.13
2022-12-08T04:13:49.366Z,100256.69
2022-12-08T04:16:32.720Z,100247.53
2022-12-08T04:19:24.790Z,100276.81
2022-12-08T04:22:25.919Z,100281.69
2022-12-08T04:25:34.705Z,100284.25
2022-12-08T04:28:19.160Z,100290.53
2022-12-08T04:31:18.829Z,100288.25
2022-12-08T04:34:16.650Z,100296.75
2022-12-08T04:36:54.258Z,100304.56
2022-12-08T04:42:35.775Z,100307.38
2022-12-08T04:45:31.550Z,100310.56
2022-12-08T04:51:14.763Z,100314.09
2022-12-08T04:54:15.222Z,100321.09
2022-12-08T04:57:08.968Z,100330.69
2022-12-08T05:00:23.024Z,100312.69
2022-12-08T05:03:33.164Z,100321.09
2022-12-08T05:06:11.218Z,100332.63
2022-12-08T05:08:57.062Z,100333.97
2022-12-08T05:11:53.403Z,100336.56
2022-12-08T05:14:30.421Z,100339.75
2022-12-08T05:20:15.945Z,100337.44
2022-12-08T05:23:23.969Z,100337.19
2022-12-08T05:26:02.763Z,100316.66
2022-12-08T05:29:10.697Z,100326.59
2022-12-08T05:32:00.116Z,100290.69
2022-12-08T05:34:48.314Z,100344.09
2022-12-08T05:37:30.550Z,100341.38
2022-12-08T05:40:17.993Z,100341.00
2022-12-08T05:42:59.970Z,100346.59
2022-12-08T05:48:53.823Z,100340.34
2022-12-08T05:51:38.172Z,100343.03
2022-12-08T05:54:17.488Z,100323.56
2022-12-08T05:56:56.358Z,100343.59
2022-12-08T05:59:42.257Z,100334.53
2022-12-08T06:02:27.338Z,100347.56
2022-12-08T06:05:07.244Z,100356.59
2022-12-08T06:07:58.974Z,100364.31
2022-12-08T06:10:51.221Z,100364.91
2022-12-08T06:13:34.048Z,100366.03
2022-12-08T06:16:13.006Z,100374.19
2022-12-08T06:19:06.785Z,100362.72
2022-12-08T06:21:44.446Z,100370.06
2022-12-08T06:24:35.441Z,100390.69
2022-12-08T06:27:26.814Z,100390.53
2022-12-08T06:30:12.122Z,100394.44
2022-12-08T06:32:58.867Z,100383.22
2022-12-08T06:35:59.233Z,100344.94
2022-12-08T06:38:46.761Z,100408.81
2022-12-08T06:41:34.947Z,100426.09
2022-12-08T06:44:25.734Z,100428.47
2022-12-08T06:47:07.418Z,100447.88
2022-12-08T06:53:05.450Z,100444.59
2022-12-08T06:56:00.068Z,100453.94
2022-12-08T06:58:52.070Z,100440.25
2022-12-08T07:02:00.395Z,100444.13
2022-12-08T07:04:36.601Z,100448.41
2022-12-08T07:07:26.852Z,100456.25
2022-12-08T07:10:42.387Z,100436.88
2022-12-08T07:16:52.678Z,100451.81
2022-12-08T07:19:36.953Z,100459.72
2022-12-08T07:22:22.071Z,100474.41
2022-12-08T07:25:18.675Z,100475.94
2022-12-08T07:27:52.920Z,100478.63
2022-12-08T07:30:56.322Z,100444.84
2022-12-08T07:33:47.672Z,100483.72
2022-12-08T07:36:38.866Z,100482.19
2022-12-08T07:39:36.621Z,100349.19
2022-12-08T07:42:25.393Z,100496.72
2022-12-08T07:45:14.876Z,100503.75
2022-12-08T07:51:02.849Z,100500.81
2022-12-08T07:53:53.369Z,100484.75
2022-12-08T07:56:44.412Z,100366.75
2022-12-08T08:02:25.601Z,100498.94
2022-12-08T08:05:14.603Z,100496.19
2022-12-08T08:07:57.975Z,100488.44
2022-12-08T08:10:51.422Z,100493.69
2022-12-08T08:16:30.061Z,100502.50
2022-12-08T08:19:14.892Z,100498.66
2022-12-08T08:22:07.014Z,100498.63
2022-12-08T08:24:54.162Z,100492.34
2022-12-08T08:27:33.788Z,100486.88
2022-12-08T08:33:29.291Z,100493.00
2022-12-08T08:36:15.627Z,100433.69
2022-12-08T08:42:05.617Z,100513.34
2022-12-08T08:44:43.191Z,100514.84
2022-12-08T08:47:36.521Z,100515.13
2022-12-08T08:50:37.687Z,100506.59
2022-12-08T08:53:17.143Z,100453.56
2022-12-08T08:56:10.311Z,100501.47
2022-12-08T09:01:55.791Z,100490.53
2022-12-08T09:20:36.776Z,100546.34
2022-12-08T09:23:16.095Z,100524.00
2022-12-08T09:25:52.131Z,100555.69
2022-12-08T09:31:35.166Z,100558.97
2022-12-08T09:34:15.325Z,100564.22
2022-12-08T09:37:29.247Z,100566.47
2022-12-08T09:40:44.999Z,100533.72
2022-12-08T09:43:40.537Z,100563.66
2022-12-08T09:49:24.098Z,100568.22
2022-12-08T09:52:08.521Z,100574.03
2022-12-08T09:58:32.297Z,100547.88
2022-12-08T10:01:22.932Z,100572.28
2022-12-08T10:04:11.156Z,100559.19
2022-12-08T10:06:54.355Z,100567.97
2022-12-08T10:10:17.226Z,100559.41
2022-12-08T10:13:10.332Z,100566.06
2022-12-08T10:16:07.214Z,100570.22
2022-12-08T10:19:28.896Z,100547.13
2022-12-08T10:22:21.018Z,100555.91
2022-12-08T10:25:35.277Z,100560.69
2022-12-08T10:28:45.095Z,100586.31
2022-12-08T10:32:44.408Z,100579.53
2022-12-08T10:35:35.057Z,100462.78
2022-12-08T10:38:27.453Z,100565.25
2022-12-08T10:44:16.147Z,100427.09
2022-12-08T10:47:01.471Z,100588.78
2022-12-08T10:49:40.844Z,100596.56
2022-12-08T10:52:40.913Z,100587.28
2022-12-08T10:55:20.923Z,100610.94
2022-12-08T11:01:29.428Z,100605.69
2022-12-08T11:04:20.485Z,100600.66
2022-12-08T11:06:59.287Z,100614.53
2022-12-08T11:10:09.416Z,100600.81
2022-12-08T11:12:51.600Z,100595.44
2022-12-08T11:16:06.893Z,100601.94
2022-12-08T11:19:06.810Z,100587.91
2022-12-08T11:21:53.036Z,100586.88
2022-12-08T11:24:53.419Z,100597.22
2022-12-08T11:30:51.144Z,100590.38
2022-12-08T11:33:39.610Z,100583.09
2022-12-08T11:36:41.129Z,100579.63
2022-12-08T11:42:21.131Z,100491.03
2022-12-08T11:45:07.139Z,100548.41
2022-12-08T11:47:55.911Z,100584.97
2022-12-08T11:50:53.638Z,100572.06
2022-12-08T11:53:47.822Z,100594.13
2022-12-08T11:56:38.195Z,100591.34
2022-12-08T11:59:25.856Z,100579.53
2022-12-08T12:02:21.125Z,100588.69
2022-12-08T12:06:05.848Z,100587.59
2022-12-08T12:08:57.628Z,100594.00
2022-12-08T12:12:00.976Z,100591.75
2022-12-08T12:15:11.748Z,100597.97
2022-12-08T12:18:05.713Z,100556.91
2022-12-08T12:21:01.354Z,100593.75
2022-12-08T12:23:48.727Z,100599.03
2022-12-08T12:26:29.325Z,100589.31
2022-12-08T12:29:16.217Z,100602.59
2022-12-08T12:32:01.316Z,100605.75
2022-12-08T12:34:56.592Z,100603.25
2022-12-08T12:38:30.840Z,100615.13
2022-12-08T12:51:05.565Z,100565.91
2022-12-08T12:57:20.621Z,100613.00
2022-12-08T13:00:33.679Z,100588.59
2022-12-08T13:03:36.497Z,100581.13
2022-12-08T13:06:29.439Z,100597.13
2022-12-08T13:09:34.351Z,100607.44
2022-12-08T13:12:29.272Z,100609.63
2022-12-08T13:15:32.312Z,100610.06
2022-12-08T13:18:19.197Z,100604.47
2022-12-08T13:21:03.301Z,100590.38
2022-12-08T13:28:02.144Z,100593.84
2022-12-08T13:31:07.323Z,100597.84
2022-12-08T13:34:00.985Z,100572.69
2022-12-08T13:36:48.610Z,100569.50
2022-12-08T13:42:51.879Z,100572.94
2022-12-08T13:53:49.432Z,100603.00
2022-12-08T13:56:43.398Z,100584.03
2022-12-08T13:58:23.006Z,100596.00
2022-12-08T14:01:36.951Z,100598.56
2022-12-08T14:07:27.381Z,100615.00
2022-12-08T14:10:17.927Z,100598.03
2022-12-08T14:13:20.385Z,100610.31
2022-12-08T14:18:53.098Z,100619.06
2022-12-08T14:21:40.626Z,100631.47
2022-12-08T14:24:43.616Z,100604.94
2022-12-08T14:27:37.283Z,100538.28
2022-12-08T14:30:48.461Z,100616.66
2022-12-08T14:33:44.358Z,100613.25
2022-12-08T14:39:41.675Z,100592.41
2022-12-08T14:42:33.933Z,100587.22
2022-12-08T14:45:24.972Z,100604.94
2022-12-08T14:48:32.979Z,100593.34
2022-12-08T14:51:38.612Z,100597.34
2022-12-08T14:54:39.505Z,100600.41
2022-12-08T14:57:28.320Z,100584.38
2022-12-08T15:00:15.006Z,100598.38
2022-12-08T15:03:07.851Z,100585.81
2022-12-08T15:05:47.843Z,100578.00
2022-12-08T15:08:31.768Z,100576.13
2022-12-08T15:11:43.564Z,100569.72
2022-12-08T15:14:55.105Z,100578.16
2022-12-08T15:17:41.321Z,100564.41
2022-12-08T15:20:43.475Z,100562.38
2022-12-08T15:26:44.409Z,100547.75
2022-12-08T15:29:30.247Z,100554.44
2022-12-08T15:32:31.262Z,100459.53
2022-12-08T15:35:11.378Z,100561.22
2022-12-08T15:38:05.389Z,100534.16
2022-12-08T15:40:51.681Z,100550.28
2022-12-08T15:43:47.507Z,100554.81
2022-12-08T15:46:49.538Z,100551.00
2022-12-08T15:49:45.300Z,100548.53
2022-12-08T15:52:38.903Z,100541.78
2022-12-08T15:55:23.250Z,100563.78
2022-12-08T15:58:52.536Z,100559.97
2022-12-08T16:01:14.568Z,100554.47
2022-12-08T16:07:21.003Z,100550.06
2022-12-08T16:13:56.326Z,100565.88
2022-12-08T16:16:35.222Z,100549.34
2022-12-08T16:19:22.658Z,100553.41
2022-12-08T16:22:44.837Z,100557.56
2022-12-08T16:25:18.797Z,100559.56
2022-12-08T16:28:36.925Z,100511.47
2022-12-08T16:31:25.240Z,100560.22
2022-12-08T16:34:27.432Z,100544.41
2022-12-08T16:37:19.498Z,100545.41
2022-12-08T16:39:56.626Z,100545.22
2022-12-08T16:42:54.431Z,100513.84
2022-12-08T16:45:44.597Z,100565.19
2022-12-08T16:48:26.729Z,100565.47
2022-12-08T16:51:28.986Z,100567.53
2022-12-08T16:54:13.043Z,100562.03
2022-12-08T16:56:50.197Z,100569.81
2022-12-08T16:59:38.053Z,100562.22
2022-12-08T17:02:28.100Z,100574.53
2022-12-08T17:05:10.447Z,100564.91
2022-12-08T17:08:05.353Z,100561.94
2022-12-08T17:11:12.047Z,100553.00
2022-12-08T17:13:56.288Z,100548.38
2022-12-08T17:16:32.673Z,100559.47
2022-12-08T17:19:23.665Z,100547.44
2022-12-08T17:22:14.545Z,100558.47
2022-12-08T17:24:55.432Z,100488.50
2022-12-08T17:27:43.399Z,100560.66
2022-12-08T17:30:30.638Z,100521.78
2022-12-08T17:36:39.771Z,100546.38
2022-12-08T17:39:26.020Z,100541.00
2022-12-08T17:42:19.887Z,100549.63
2022-12-08T17:45:22.523Z,100544.84
2022-12-08T17:48:03.891Z,100550.84
2022-12-08T17:50:58.903Z,100545.22
2022-12-08T17:53:58.623Z,100547.72
2022-12-08T17:59:52.080Z,100521.50
2022-12-08T18:02:34.432Z,100525.72
2022-12-08T18:05:32.503Z,100524.59
2022-12-08T18:08:08.242Z,100533.94
2022-12-08T18:11:01.813Z,100523.50
2022-12-08T18:14:01.491Z,100529.31
2022-12-08T18:16:52.939Z,100529.44
2022-12-08T18:19:38.461Z,100528.81
2022-12-08T18:22:30.893Z,100531.25
2022-12-08T18:25:11.673Z,100521.63
2022-12-08T18:27:55.915Z,100520.53
2022-12-08T18:30:34.604Z,100529.75
2022-12-08T18:33:31.450Z,100533.72
2022-12-08T18:36:21.058Z,100529.22
2022-12-08T18:39:04.575Z,100525.91
2022-12-08T18:42:11.572Z,100529.66
2022-12-08T18:48:04.895Z,100532.16
2022-12-08T18:50:47.991Z,100534.59
2022-12-08T18:53:37.723Z,100519.34
2022-12-08T18:56:31.100Z,100523.78
2022-12-08T18:59:17.781Z,100524.47
2022-12-08T19:02:11.601Z,100508.63
2022-12-08T19:04:50.293Z,100513.47
2022-12-08T19:07:38.408Z,100519.63
2022-12-08T19:10:40.036Z,100525.78
2022-12-08T19:13:17.671Z,100526.91
2022-12-08T19:16:13.367Z,100527.88
2022-12-08T19:21:46.992Z,100522.00
2022-12-08T19:24:39.671Z,100521.50
2022-12-08T19:27:23.661Z,100516.94
2022-12-08T19:30:29.480Z,100518.81
2022-12-08T19:33:07.879Z,100524.06
2022-12-08T19:36:01.428Z,100528.81
2022-12-08T19:38:50.269Z,100528.72
2022-12-08T19:41:58.681Z,100478.69
2022-12-08T19:44:52.006Z,100512.94
2022-12-08T19:47:35.107Z,100538.59
2022-12-08T19:50:29.158Z,100535.63
2022-12-08T19:53:21.752Z,100499.50
2022-12-08T19:56:06.658Z,100543.34
2022-12-08T19:58:55.466Z,100544.34
2022-12-08T20:02:14.147Z,100528.06
2022-12-08T20:05:51.364Z,100542.31
2022-12-08T20:09:06.625Z,100536.84
2022-12-08T20:11:56.787Z,100528.22
2022-12-08T20:14:47.760Z,100527.84
2022-12-08T20:17:35.544Z,100530.72
2022-12-08T20:20:24.852Z,100519.66
2022-12-08T20:23:03.605Z,100463.38
2022-12-08T20:26:05.588Z,100509.31
2022-12-08T20:28:43.333Z,100514.34
2022-12-08T20:34:41.328Z,100513.84
2022-12-08T20:37:26.347Z,100518.16
2022-12-08T20:40:35.608Z,100519.91
2022-12-08T20:46:21.524Z,100510.16
2022-12-08T20:49:39.310Z,100532.31
2022-12-08T20:52:34.450Z,100531.47
2022-12-08T20:55:22.512Z,100519.56
2022-12-08T20:58:07.049Z,100532.88
2022-12-08T21:03:40.986Z,100527.59
2022-12-08T21:09:38.825Z,100527.66
2022-12-08T21:12:33.464Z,100540.00
2022-12-08T21:15:20.470Z,100540.22
2022-12-08T21:18:01.508Z,100548.69
2022-12-08T21:20:36.128Z,100544.59
2022-12-08T21:23:25.823Z,100547.31
2022-12-08T21:26:26.440Z,100544.06
2022-12-08T21:29:15.528Z,100536.44
2022-12-08T21:31:57.312Z,100539.97
2022-12-08T21:34:57.668Z,100537.16
2022-12-08T21:37:43.844Z,100528.22
2022-12-08T21:47:22.102Z,100528.00
2022-12-08T21:57:11.497Z,100554.03
2022-12-08T22:03:10.361Z,100553.13
2022-12-08T22:05:50.233Z,100555.88
2022-12-08T22:08:32.280Z,100541.81
2022-12-08T22:11:29.350Z,100541.63
2022-12-08T22:14:15.495Z,100556.75
2022-12-08T22:19:56.952Z,100551.03
2022-12-08T22:22:43.889Z,100564.22
2022-12-08T22:25:20.728Z,100569.50
2022-12-08T22:28:01.628Z,100576.31
2022-12-08T22:30:53.781Z,100565.09
2022-12-08T22:34:05.336Z,100569.06
2022-12-08T22:36:44.243Z,100555.91
2022-12-08T22:39:30.753Z,100568.59
2022-12-08T22:42:19.451Z,100560.69
2022-12-08T22:45:11.899Z,100572.53
2022-12-08T22:48:13.214Z,100575.19
2022-12-08T22:51:08.762Z,100578.53
2022-12-08T22:54:03.896Z,100551.13
2022-12-08T22:57:06.239Z,100580.63
2022-12-08T23:02:40.060Z,100589.81
2022-12-08T23:05:32.988Z,100588.47
2022-12-08T23:08:29.606Z,100537.25
2022-12-08T23:11:20.306Z,100578.28
2022-12-08T23:14:10.716Z,100583.97
2022-12-08T23:16:57.378Z,100579.56
2022-12-08T23:19:46.872Z,100576.56
2022-12-08T23:22:53.930Z,100573.50
2022-12-08T23:25:42.164Z,100587.09
2022-12-08T23:28:33.920Z,100558.13
2022-12-08T23:34:24.910Z,100572.63
2022-12-08T23:37:21.386Z,100581.03
2022-12-08T23:40:13.077Z,100579.97
2022-12-08T23:43:23.415Z,100588.25
2022-12-08T23:46:10.416Z,100595.25
2022-12-08T23:48:51.448Z,100595.16
2022-12-08T23:51:35.835Z,100542.94
2022-12-08T23:54:14.573Z,100591.84
2022-12-08T23:57:10.221Z,100599.16
